Ambleside, United Kingdom
Current Conditions -  °F | °C
As of 9:50 PM on Monday 20 Oct 2014 (Local Time) from EGOM Reporting Station
Broken Clouds Broken Clouds  
Wind Chill:   Ceiling: 1900
Heat Index:   Visibility: 6mi
Dew Point:   Wind: 9mph
Humidity: 100%   Direction: 200°SSW
Pressure: 29.59"   Gusts: NA
Location:  54.43°N, 2.96°W
Report Text: EGOM 202050Z AUTO 20008KT 9999 BKN019/// BKN060/// 09/09 Q1002
Loading
Personal Weather Stations






























Interactive Weather Map
Tropical Storm Tracking
New forecast layout! Learn more

10-Day Weather Forecast

Advertisements
Track Severe Weather on mobile